Time;durP1;ratioP1;P1;durP2;ratioP2;P2;SDS_P1;SDS_P2;PMS_P1;PMS_P2;Temp;Humidity;BMP_temperature;BMP_pressure;BME280_temperature;BME280_humidity;BME280_pressure;Samples;Min_cycle;Max_cycle;Signal;HPM_P1;HPM_P2
2023/06/20 00:01:32;;;;;;;18.60;13.95;;;17.00;99.90;;;;;;5040258;27;90625;-35
2023/06/20 00:03:57;;;;;;;17.70;13.30;;;17.00;99.90;;;;;;5041296;27;89489;-34
2023/06/20 00:06:23;;;;;;;16.45;13.15;;;17.00;99.90;;;;;;5041553;27;89691;-34
2023/06/20 00:08:49;;;;;;;13.80;11.55;;;16.90;99.90;;;;;;5041163;27;89668;-33
2023/06/20 00:11:14;;;;;;;17.35;13.63;;;16.90;99.90;;;;;;5040859;27;89538;-35
2023/06/20 00:13:43;;;;;;;15.10;11.88;;;16.90;99.90;;;;;;5041318;27;88995;-32
2023/06/20 00:16:11;;;;;;;13.90;12.27;;;16.90;99.90;;;;;;5040553;27;89709;-33
2023/06/20 00:18:38;;;;;;;18.23;12.73;;;16.80;99.90;;;;;;5041164;27;89331;-36
2023/06/20 00:21:04;;;;;;;14.60;11.20;;;16.80;99.90;;;;;;5041474;27;89490;-34
2023/06/20 00:23:29;;;;;;;21.33;12.48;;;16.80;99.90;;;;;;5040245;27;90503;-34
2023/06/20 00:25:58;;;;;;;16.23;13.80;;;16.80;99.90;;;;;;5039754;27;90897;-37
2023/06/20 00:28:24;;;;;;;13.23;11.63;;;16.90;99.90;;;;;;5041003;27;90424;-34
2023/06/20 00:30:50;;;;;;;17.23;12.18;;;16.90;99.90;;;;;;5040276;27;89136;-35
2023/06/20 00:33:18;;;;;;;14.05;12.32;;;16.90;99.90;;;;;;5040169;27;90253;-35
2023/06/20 00:35:44;;;;;;;16.27;12.40;;;16.90;99.90;;;;;;5040163;27;89603;-38
2023/06/20 00:38:09;;;;;;;17.13;13.48;;;16.90;99.90;;;;;;5039965;27;90021;-36
2023/06/20 00:40:35;;;;;;;14.32;12.77;;;16.90;99.90;;;;;;5039963;27;90053;-38
2023/06/20 00:43:01;;;;;;;15.45;13.05;;;16.80;99.90;;;;;;5040965;27;90067;-33
2023/06/20 00:45:29;;;;;;;13.77;12.48;;;16.80;99.90;;;;;;5039973;27;88180;-35
2023/06/20 00:47:57;;;;;;;19.55;13.90;;;16.80;99.90;;;;;;5039772;27;89540;-35
2023/06/20 00:50:26;;;;;;;15.87;13.13;;;16.70;99.90;;;;;;5039757;27;89365;-35
2023/06/20 00:52:56;;;;;;;18.35;14.35;;;16.70;99.90;;;;;;5040774;27;90147;-34
2023/06/20 00:55:22;;;;;;;17.70;12.38;;;16.70;99.90;;;;;;5040730;27;89601;-34
2023/06/20 00:57:48;;;;;;;14.90;12.60;;;16.80;99.90;;;;;;5040443;27;89861;-36
2023/06/20 01:00:14;;;;;;;20.25;15.02;;;16.80;99.90;;;;;;5037417;27;88629;-36
2023/06/20 01:02:46;;;;;;;19.42;14.38;;;16.80;99.90;;;;;;5039662;27;90253;-33
2023/06/20 01:05:15;;;;;;;17.92;14.48;;;16.80;99.90;;;;;;5039738;27;89810;-35
2023/06/20 01:07:52;;;;;;;15.27;13.68;;;16.80;99.90;;;;;;5046801;27;90006;-39
2023/06/20 01:10:48;;;;;;;15.80;12.77;;;16.80;99.90;;;;;;5039957;27;89085;-32
2023/06/20 01:13:38;;;;;;;16.52;12.85;;;16.80;99.90;;;;;;5031668;27;90804;-37
2023/06/20 01:16:20;;;;;;;16.35;14.48;;;16.70;99.90;;;;;;5039910;27;90713;-36
2023/06/20 01:18:54;;;;;;;15.68;13.40;;;16.70;99.90;;;;;;5039476;27;90543;-37
2023/06/20 01:21:25;;;;;;;16.73;13.85;;;16.60;99.90;;;;;;5027820;27;89980;-34
2023/06/20 01:24:00;;;;;;;15.07;13.25;;;16.60;99.90;;;;;;5039955;27;89793;-34
2023/06/20 01:26:59;;;;;;;19.00;13.90;;;16.50;99.90;;;;;;5039374;27;89952;-34
2023/06/20 01:29:44;;;;;;;19.40;14.68;;;16.50;99.90;;;;;;4999202;27;90196;-35
2023/06/20 01:32:15;;;;;;;22.77;15.60;;;16.50;99.90;;;;;;5039084;27;88372;-34
2023/06/20 01:35:05;;;;;;;19.83;14.88;;;16.50;99.90;;;;;;5038663;27;90569;-33
2023/06/20 01:37:34;;;;;;;17.50;15.20;;;16.50;99.90;;;;;;5038349;27;90974;-35
2023/06/20 01:40:03;;;;;;;18.02;15.27;;;16.40;99.90;;;;;;5038767;27;89828;-33
2023/06/20 01:42:29;;;;;;;19.05;15.07;;;16.50;99.90;;;;;;5038813;27;89596;-34
2023/06/20 01:44:59;;;;;;;18.60;15.23;;;16.40;99.90;;;;;;5039676;27;89621;-36
2023/06/20 01:47:25;;;;;;;21.40;15.68;;;16.40;99.90;;;;;;5040019;27;89517;-34
2023/06/20 01:49:53;;;;;;;18.50;15.25;;;16.40;99.90;;;;;;5038687;27;90665;-35
2023/06/20 01:52:20;;;;;;;21.60;16.60;;;16.40;99.90;;;;;;5020977;27;89070;-35
2023/06/20 01:54:49;;;;;;;27.92;16.35;;;16.40;99.90;;;;;;5039215;27;90056;-37
2023/06/20 01:57:16;;;;;;;;;;;16.40;99.90;;;;;;5039463;27;89612;-38
2023/06/20 01:59:43;;;;;;;20.00;17.90;;;16.30;99.90;;;;;;5040832;27;90117;-32
2023/06/20 02:02:10;;;;;;;20.00;17.80;;;16.30;99.90;;;;;;5039053;27;88324;-33
2023/06/20 02:04:36;;;;;;;22.88;17.60;;;16.40;99.90;;;;;;5020563;27;90950;-34
2023/06/20 02:07:03;;;;;;;22.13;17.20;;;16.40;99.90;;;;;;5038945;27;91151;-35
2023/06/20 02:09:30;;;;;;;24.08;19.02;;;16.40;99.90;;;;;;5038889;27;90342;-35
2023/06/20 02:11:57;;;;;;;20.23;17.33;;;16.40;99.90;;;;;;5038526;27;89656;-34
2023/06/20 02:14:25;;;;;;;24.33;18.52;;;16.40;99.90;;;;;;5039306;27;88390;-38
2023/06/20 02:16:51;;;;;;;20.38;17.67;;;16.40;99.90;;;;;;5039407;27;89857;-34
2023/06/20 02:19:16;;;;;;;22.23;18.70;;;16.30;99.90;;;;;;5037974;27;89242;-33
2023/06/20 02:21:44;;;;;;;25.58;18.88;;;16.30;99.90;;;;;;5020620;27;88845;-34
2023/06/20 02:24:15;;;;;;;24.30;17.20;;;16.40;99.90;;;;;;5039060;27;90036;-35
2023/06/20 02:26:43;;;;;;;21.13;17.58;;;16.40;99.90;;;;;;5039702;27;90001;-32
2023/06/20 02:29:11;;;;;;;22.58;18.35;;;16.40;99.90;;;;;;5037972;27;89465;-35
2023/06/20 02:31:45;;;;;;;22.03;19.10;;;16.40;99.90;;;;;;5038220;27;91095;-34
2023/06/20 02:34:15;;;;;;;25.63;20.88;;;16.40;99.90;;;;;;5038691;27;90124;-36
2023/06/20 02:36:43;;;;;;;25.55;20.85;;;16.50;99.90;;;;;;5035660;27;90839;-34
2023/06/20 02:39:08;;;;;;;22.33;19.70;;;16.40;99.90;;;;;;5038737;27;89842;-36
2023/06/20 02:41:34;;;;;;;26.23;18.58;;;16.50;99.90;;;;;;5038278;27;89236;-36
2023/06/20 02:44:00;;;;;;;24.90;20.92;;;16.50;99.90;;;;;;5038565;27;91404;-36
2023/06/20 02:46:37;;;;;;;26.48;20.35;;;16.50;99.90;;;;;;5038126;27;92279;-35
2023/06/20 02:49:22;;;;;;;27.33;20.63;;;16.50;99.90;;;;;;5038875;27;90755;-36
2023/06/20 02:52:12;;;;;;;26.48;21.38;;;16.50;99.90;;;;;;5038830;27;89575;-37
2023/06/20 02:54:48;;;;;;;24.80;19.17;;;16.50;99.90;;;;;;5037664;27;90712;-33
2023/06/20 02:57:18;;;;;;;26.17;21.65;;;16.40;99.90;;;;;;5038338;27;90773;-37
2023/06/20 03:00:01;;;;;;;27.10;21.27;;;16.50;99.90;;;;;;5038249;27;89932;-35
2023/06/20 03:02:30;;;;;;;31.13;22.70;;;16.50;99.90;;;;;;5038108;27;89727;-33
2023/06/20 03:05:00;;;;;;;32.33;22.90;;;16.50;99.90;;;;;;5037693;27;89140;-34
2023/06/20 03:07:26;;;;;;;24.13;21.58;;;16.60;99.90;;;;;;5037806;27;89515;-33
2023/06/20 03:09:55;;;;;;;27.05;21.25;;;16.50;99.90;;;;;;5038792;27;89667;-35
2023/06/20 03:12:21;;;;;;;25.25;20.10;;;16.60;99.90;;;;;;5038301;27;89532;-36
2023/06/20 03:14:47;;;;;;;25.13;20.25;;;16.60;99.90;;;;;;5038794;27;90528;-34
2023/06/20 03:17:14;;;;;;;30.27;21.52;;;16.50;99.90;;;;;;5038108;27;89685;-35
2023/06/20 03:19:39;;;;;;;27.60;20.52;;;16.50;99.90;;;;;;5038314;27;90271;-34
2023/06/20 03:22:05;;;;;;;26.83;22.02;;;16.40;99.90;;;;;;5037541;27;90145;-32
2023/06/20 03:24:30;;;;;;;30.48;22.40;;;16.50;99.90;;;;;;5021198;27;89761;-38
2023/06/20 03:26:56;;;;;;;28.38;20.73;;;16.50;99.90;;;;;;5023674;27;89792;-34
2023/06/20 03:29:21;;;;;;;28.95;22.08;;;16.40;99.90;;;;;;5040819;27;90062;-38
2023/06/20 03:31:47;;;;;;;27.88;21.65;;;16.40;99.90;;;;;;5044623;27;88916;-36
2023/06/20 03:34:13;;;;;;;26.30;22.20;;;16.40;99.90;;;;;;5056048;27;90412;-35
2023/06/20 03:36:38;;;;;;;27.33;23.15;;;16.40;99.90;;;;;;5055519;27;89855;-33
2023/06/20 03:39:04;;;;;;;26.70;21.90;;;16.40;99.90;;;;;;5043979;27;89638;-34
2023/06/20 03:41:29;;;;;;;30.42;21.80;;;16.40;99.90;;;;;;5052933;27;87496;-34
2023/06/20 03:43:55;;;;;;;30.15;24.05;;;16.40;99.90;;;;;;5043198;27;90502;-33
2023/06/20 03:46:20;;;;;;;28.52;23.52;;;16.40;99.90;;;;;;5040421;27;90616;-34
2023/06/20 03:48:46;;;;;;;25.90;22.65;;;16.40;99.90;;;;;;5043465;27;90756;-37
2023/06/20 03:51:12;;;;;;;30.52;23.20;;;16.50;99.90;;;;;;5040840;27;89056;-35
2023/06/20 03:53:37;;;;;;;31.63;23.88;;;16.50;99.90;;;;;;5041284;27;88710;-39
2023/06/20 03:56:03;;;;;;;25.33;20.20;;;16.50;99.90;;;;;;5041250;27;89776;-36
2023/06/20 03:58:29;;;;;;;26.75;22.25;;;16.40;99.90;;;;;;5040753;27;90975;-34
2023/06/20 04:00:56;;;;;;;26.77;21.92;;;16.40;99.90;;;;;;5041317;27;89452;-37
2023/06/20 04:03:22;;;;;;;27.53;22.97;;;16.40;99.90;;;;;;5028711;27;91595;-34
2023/06/20 04:05:47;;;;;;;27.95;22.73;;;16.50;99.90;;;;;;5040485;27;89764;-34
2023/06/20 04:08:13;;;;;;;31.73;21.90;;;16.50;99.90;;;;;;5041211;27;89895;-37
2023/06/20 04:10:38;;;;;;;27.92;21.50;;;16.50;99.90;;;;;;5040602;27;90279;-37
2023/06/20 04:13:04;;;;;;;27.67;20.35;;;16.50;99.90;;;;;;5041355;27;89821;-35
2023/06/20 04:15:30;;;;;;;22.90;18.95;;;16.50;99.90;;;;;;5040246;27;90953;-37
2023/06/20 04:17:55;;;;;;;25.85;20.60;;;16.50;99.90;;;;;;5022660;27;89692;-36
2023/06/20 04:20:21;;;;;;;30.20;21.98;;;16.50;99.90;;;;;;5043349;27;88004;-33
2023/06/20 04:22:46;;;;;;;21.85;19.52;;;16.50;99.90;;;;;;5040685;27;91920;-34
2023/06/20 04:25:16;;;;;;;27.60;20.95;;;16.50;99.90;;;;;;5040505;27;89681;-35
2023/06/20 04:27:42;;;;;;;24.80;19.75;;;16.50;99.90;;;;;;5040988;27;89893;-34
2023/06/20 04:30:08;;;;;;;23.25;20.63;;;16.50;99.90;;;;;;5039840;27;88219;-35
2023/06/20 04:32:34;;;;;;;26.77;20.05;;;16.50;99.90;;;;;;5045935;22;90173;-37
2023/06/20 04:35:00;;;;;;;26.73;19.10;;;16.50;99.90;;;;;;4999048;28;90773;-34
2023/06/20 04:37:29;;;;;;;25.25;19.30;;;16.60;99.90;;;;;;4999764;28;90463;-35
2023/06/20 04:39:56;;;;;;;23.17;20.80;;;16.70;99.90;;;;;;4999183;28;89820;-37
2023/06/20 04:42:21;;;;;;;25.10;20.92;;;16.80;99.90;;;;;;5000100;28;89839;-34
2023/06/20 04:44:48;;;;;;;29.25;20.38;;;16.70;99.90;;;;;;4999786;28;90269;-35
2023/06/20 04:47:14;;;;;;;23.13;20.60;;;16.70;99.90;;;;;;4999334;28;89591;-37
2023/06/20 04:49:40;;;;;;;26.90;21.50;;;16.80;99.90;;;;;;5000599;28;89168;-33
2023/06/20 04:52:06;;;;;;;26.67;21.52;;;16.80;99.90;;;;;;4999554;28;90761;-34
2023/06/20 04:54:32;;;;;;;29.20;21.30;;;16.90;99.90;;;;;;5000114;28;89449;-35
2023/06/20 04:56:57;;;;;;;26.02;19.35;;;16.90;99.90;;;;;;4999941;28;90172;-33
2023/06/20 04:59:23;;;;;;;24.55;19.90;;;16.90;99.90;;;;;;4999433;28;90034;-33
2023/06/20 05:01:51;;;;;;;23.65;20.30;;;16.90;99.90;;;;;;5003559;28;89774;-33
2023/06/20 05:04:17;;;;;;;23.42;20.00;;;16.90;99.90;;;;;;4998784;28;89536;-36
2023/06/20 05:06:43;;;;;;;23.88;20.42;;;17.00;99.90;;;;;;4999020;28;90211;-36
2023/06/20 05:09:09;;;;;;;25.70;18.85;;;17.00;99.90;;;;;;4999031;28;88006;-36
2023/06/20 05:11:35;;;;;;;29.08;19.77;;;17.10;99.90;;;;;;4998568;28;90474;-37
2023/06/20 05:14:00;;;;;;;26.35;19.80;;;17.20;99.90;;;;;;4999818;28;89568;-33
2023/06/20 05:16:26;;;;;;;27.60;19.70;;;17.20;99.90;;;;;;4980776;28;89928;-33
2023/06/20 05:18:51;;;;;;;22.40;18.23;;;17.30;99.90;;;;;;4999526;28;88438;-34
2023/06/20 05:21:17;;;;;;;22.50;20.02;;;17.40;99.90;;;;;;4980675;28;91734;-32
2023/06/20 05:23:43;;;;;;;28.58;19.33;;;17.50;99.90;;;;;;4998344;28;91030;-33
2023/06/20 05:26:08;;;;;;;20.80;18.30;;;17.60;99.90;;;;;;4998987;28;90657;-36
2023/06/20 05:28:34;;;;;;;21.52;19.00;;;17.60;99.90;;;;;;4998682;28;88779;-37
2023/06/20 05:30:59;;;;;;;24.45;19.50;;;17.70;99.90;;;;;;4999430;28;90783;-35
2023/06/20 05:33:25;;;;;;;23.38;18.42;;;17.80;99.90;;;;;;5013282;28;91526;-35
2023/06/20 05:35:52;;;;;;;23.42;18.23;;;17.80;99.90;;;;;;5019044;28;88584;-34
2023/06/20 05:38:18;;;;;;;25.15;20.08;;;17.90;99.90;;;;;;5018579;28;89859;-35
2023/06/20 05:40:43;;;;;;;21.38;18.52;;;18.00;99.90;;;;;;5019422;28;90282;-34
2023/06/20 05:43:09;;;;;;;19.42;17.30;;;18.00;99.90;;;;;;5019522;28;90258;-33
2023/06/20 05:45:35;;;;;;;21.52;19.20;;;18.10;99.90;;;;;;5018816;28;89818;-33
2023/06/20 05:48:00;;;;;;;23.08;17.67;;;18.30;99.90;;;;;;5017810;27;89770;-33
2023/06/20 05:50:26;;;;;;;22.38;17.92;;;18.30;99.90;;;;;;5019311;28;90288;-33
2023/06/20 05:52:52;;;;;;;19.10;17.08;;;18.40;99.90;;;;;;5017397;28;89817;-35
2023/06/20 05:55:19;;;;;;;18.83;16.42;;;18.50;99.90;;;;;;5019397;28;89921;-40
2023/06/20 05:57:45;;;;;;;18.17;16.25;;;18.50;99.90;;;;;;5018984;28;87989;-33
2023/06/20 06:00:12;;;;;;;17.00;15.35;;;18.60;99.90;;;;;;5014078;28;89492;-33
2023/06/20 06:02:39;;;;;;;18.45;15.73;;;18.70;99.90;;;;;;5016918;28;91358;-37
2023/06/20 06:05:05;;;;;;;17.77;13.82;;;18.80;99.90;;;;;;5017385;28;89467;-33
2023/06/20 06:07:30;;;;;;;20.05;16.35;;;18.90;99.90;;;;;;5023071;27;88470;-33
2023/06/20 06:09:56;;;;;;;16.05;14.43;;;19.00;99.90;;;;;;5016440;28;90139;-37
2023/06/20 06:12:22;;;;;;;16.58;14.98;;;19.00;99.90;;;;;;4997882;28;90688;-35
2023/06/20 06:14:47;;;;;;;19.65;15.57;;;19.00;99.90;;;;;;5017562;27;90822;-39
2023/06/20 06:17:13;;;;;;;16.80;13.85;;;19.10;99.90;;;;;;5021801;27;89820;-35
2023/06/20 06:19:40;;;;;;;17.30;14.90;;;19.10;99.90;;;;;;5015799;28;89336;-38
2023/06/20 06:22:05;;;;;;;16.48;14.77;;;19.20;99.90;;;;;;5016627;28;89442;-34
2023/06/20 06:24:31;;;;;;;24.45;15.60;;;19.20;99.90;;;;;;5016031;28;89846;-34
2023/06/20 06:26:56;;;;;;;19.38;14.82;;;19.20;99.90;;;;;;5015293;28;90736;-34
2023/06/20 06:29:22;;;;;;;17.40;15.48;;;19.20;99.90;;;;;;5014069;27;90037;-36
2023/06/20 06:31:48;;;;;;;17.95;14.73;;;19.30;99.90;;;;;;5016415;27;90275;-36
2023/06/20 06:34:18;;;;;;;17.70;15.90;;;19.30;99.90;;;;;;4996599;28;89495;-33
2023/06/20 06:36:49;;;;;;;18.13;15.65;;;19.40;99.90;;;;;;5014713;28;90901;-35
2023/06/20 06:39:17;;;;;;;21.88;15.10;;;19.50;99.90;;;;;;5014432;28;90574;-36
2023/06/20 06:41:48;;;;;;;16.88;15.10;;;19.50;99.90;;;;;;5015824;28;89171;-35
2023/06/20 06:44:14;;;;;;;18.25;15.73;;;19.50;99.90;;;;;;5016305;28;89653;-35
2023/06/20 06:46:39;;;;;;;18.63;16.60;;;19.60;99.90;;;;;;5015758;28;89025;-37
2023/06/20 06:49:05;;;;;;;18.85;16.83;;;19.60;99.90;;;;;;5021256;27;90468;-36
2023/06/20 06:51:31;;;;;;;18.58;15.38;;;19.70;99.90;;;;;;5019268;27;90822;-32
2023/06/20 06:53:56;;;;;;;19.63;16.05;;;19.70;99.90;;;;;;5015344;28;89607;-37
2023/06/20 06:56:22;;;;;;;18.83;16.20;;;19.70;99.90;;;;;;5028874;27;88652;-35
2023/06/20 06:58:47;;;;;;;17.10;15.35;;;19.80;99.90;;;;;;5016069;27;89994;-34
2023/06/20 07:01:13;;;;;;;19.25;15.23;;;19.80;99.90;;;;;;5018838;28;91104;-36
2023/06/20 07:03:38;;;;;;;19.38;17.25;;;19.90;99.90;;;;;;5018717;28;90135;-37
2023/06/20 07:06:04;;;;;;;19.30;17.38;;;19.90;99.90;;;;;;5019396;28;88832;-35
2023/06/20 07:08:30;;;;;;;20.60;16.67;;;20.00;99.90;;;;;;5019130;28;90383;-36
2023/06/20 07:10:55;;;;;;;19.27;17.35;;;20.00;99.90;;;;;;5016538;28;90692;-35
2023/06/20 07:13:24;;;;;;;17.02;15.18;;;20.00;99.90;;;;;;5018858;28;90130;-33
2023/06/20 07:15:50;;;;;;;19.67;17.20;;;20.00;99.90;;;;;;5019714;28;88876;-33
2023/06/20 07:18:16;;;;;;;21.55;17.35;;;20.10;99.90;;;;;;5018982;28;89434;-33
2023/06/20 07:20:41;;;;;;;20.73;18.52;;;20.10;99.90;;;;;;5019118;28;90220;-34
2023/06/20 07:23:07;;;;;;;27.60;17.48;;;20.10;99.90;;;;;;5019034;28;89247;-33
2023/06/20 07:25:32;;;;;;;21.33;19.25;;;20.10;99.90;;;;;;5019127;28;89339;-33
2023/06/20 07:27:58;;;;;;;20.48;17.77;;;20.10;99.90;;;;;;5018339;28;90288;-35
2023/06/20 07:30:24;;;;;;;23.85;17.52;;;20.10;99.90;;;;;;5018721;28;89396;-37
2023/06/20 07:32:49;;;;;;;20.30;18.08;;;20.10;99.90;;;;;;5019104;28;89470;-32
2023/06/20 07:35:15;;;;;;;20.58;18.42;;;20.00;99.90;;;;;;5018668;28;90181;-34
2023/06/20 07:37:41;;;;;;;29.15;18.75;;;20.00;99.90;;;;;;5019003;28;90438;-34
2023/06/20 07:40:07;;;;;;;20.63;18.35;;;20.00;99.90;;;;;;5018690;28;89156;-35
2023/06/20 07:42:33;;;;;;;19.95;17.70;;;20.10;99.90;;;;;;5019431;27;89178;-35
2023/06/20 07:44:59;;;;;;;21.27;19.02;;;20.20;99.90;;;;;;5019171;28;88726;-36
2023/06/20 07:47:24;;;;;;;18.60;16.55;;;20.30;99.90;;;;;;5018577;28;90370;-33
2023/06/20 07:49:50;;;;;;;19.30;16.90;;;20.30;99.90;;;;;;5018313;28;90267;-37
2023/06/20 07:52:15;;;;;;;23.58;18.83;;;20.40;99.90;;;;;;5017851;28;90697;-34
2023/06/20 07:54:41;;;;;;;23.38;19.05;;;20.40;99.90;;;;;;5018609;28;88623;-38
2023/06/20 07:57:07;;;;;;;19.80;17.70;;;20.40;99.90;;;;;;5018648;28;89452;-35
2023/06/20 07:59:32;;;;;;;19.55;16.23;;;20.50;99.90;;;;;;5018598;28;89747;-39
2023/06/20 08:01:58;;;;;;;21.85;19.52;;;20.50;99.90;;;;;;5019186;28;90152;-32
2023/06/20 08:04:24;;;;;;;19.58;17.55;;;20.50;99.90;;;;;;5018047;28;89481;-36
2023/06/20 08:06:49;;;;;;;20.33;17.60;;;20.60;99.90;;;;;;5018598;28;90198;-37
2023/06/20 08:09:15;;;;;;;19.38;17.52;;;20.60;99.90;;;;;;5017090;28;90924;-37
2023/06/20 08:11:42;;;;;;;19.02;17.13;;;20.60;99.90;;;;;;5017470;28;90219;-38
2023/06/20 08:14:07;;;;;;;20.17;18.25;;;20.80;99.90;;;;;;5017719;28;89663;-34
2023/06/20 08:16:33;;;;;;;19.90;17.65;;;20.90;99.90;;;;;;5018577;28;90918;-33
2023/06/20 08:18:59;;;;;;;18.08;16.23;;;21.00;99.90;;;;;;5017359;28;89415;-37
2023/06/20 08:21:24;;;;;;;23.00;17.60;;;21.20;99.90;;;;;;5017314;28;89663;-34
2023/06/20 08:23:50;;;;;;;23.45;18.52;;;21.40;99.90;;;;;;5018049;28;89099;-37
2023/06/20 08:26:16;;;;;;;19.55;16.40;;;21.50;99.90;;;;;;5017429;28;88730;-36
2023/06/20 08:28:41;;;;;;;19.15;16.25;;;21.50;99.90;;;;;;5017773;28;89505;-36
2023/06/20 08:31:07;;;;;;;16.70;14.90;;;21.70;99.90;;;;;;5018050;28;89808;-35
2023/06/20 08:33:35;;;;;;;18.40;16.50;;;21.90;99.90;;;;;;5030346;27;88416;-33
2023/06/20 08:36:01;;;;;;;16.83;15.13;;;21.90;99.90;;;;;;5027145;27;90169;-35
2023/06/20 08:38:27;;;;;;;18.52;15.43;;;22.00;99.90;;;;;;5023622;27;90736;-36
2023/06/20 08:40:53;;;;;;;22.02;16.70;;;22.10;99.90;;;;;;5027852;27;90828;-35
2023/06/20 08:43:18;;;;;;;17.77;16.02;;;22.20;99.90;;;;;;5033213;27;87558;-36
2023/06/20 08:45:45;;;;;;;16.75;14.95;;;22.20;99.90;;;;;;5037394;27;90308;-36
2023/06/20 08:48:10;;;;;;;15.50;14.07;;;22.60;99.90;;;;;;5020708;27;89743;-36
2023/06/20 08:50:37;;;;;;;16.48;14.40;;;22.90;99.90;;;;;;5026731;27;89119;-37
2023/06/20 08:53:05;;;;;;;18.65;13.77;;;23.10;99.90;;;;;;5036502;27;89049;-35
2023/06/20 08:55:31;;;;;;;;;;;23.00;99.90;;;;;;5029316;27;90221;-35
2023/06/20 08:57:57;;;;;;;21.42;14.55;;;22.80;99.90;;;;;;5019524;27;90428;-36
2023/06/20 09:00:23;;;;;;;16.63;14.82;;;22.90;99.90;;;;;;5016834;28;90746;-37
2023/06/20 09:02:50;;;;;;;19.55;15.80;;;23.20;99.90;;;;;;5016709;27;89659;-37
2023/06/20 09:05:16;;;;;;;16.58;14.98;;;23.40;99.90;;;;;;5017470;27;90653;-35
2023/06/20 09:07:43;;;;;;;16.23;14.73;;;23.30;99.90;;;;;;5016972;27;91417;-37
2023/06/20 09:10:14;;;;;;;22.17;18.05;;;23.20;99.90;;;;;;5017195;27;89530;-38
2023/06/20 09:12:50;;;;;;;17.23;15.48;;;23.40;99.90;;;;;;5017057;27;88757;-34
2023/06/20 09:15:18;;;;;;;20.27;16.52;;;23.40;99.90;;;;;;5017358;28;90242;-39
2023/06/20 09:17:44;;;;;;;22.13;17.25;;;23.40;99.90;;;;;;5018224;27;89636;-34
2023/06/20 09:20:12;;;;;;;17.20;15.35;;;23.50;99.90;;;;;;5016433;28;89546;-35
2023/06/20 09:22:39;;;;;;;17.63;14.05;;;23.60;99.90;;;;;;4998183;28;89575;-33
2023/06/20 09:25:05;;;;;;;12.90;11.60;;;23.90;99.90;;;;;;5016908;27;89912;-38
2023/06/20 09:27:41;;;;;;;14.18;12.88;;;24.10;99.90;;;;;;5016858;27;92595;-35
2023/06/20 09:30:08;;;;;;;13.98;12.70;;;24.40;99.90;;;;;;5017494;27;90780;-37
2023/06/20 09:32:35;;;;;;;12.73;11.43;;;24.70;99.90;;;;;;5017147;27;87754;-37
2023/06/20 09:35:03;;;;;;;14.40;12.00;;;24.90;99.90;;;;;;5017892;27;90273;-34
2023/06/20 09:37:39;;;;;;;12.52;11.32;;;24.90;99.90;;;;;;5017950;27;88771;-37
2023/06/20 09:40:10;;;;;;;13.23;11.82;;;25.10;99.90;;;;;;5018907;27;89572;-34
2023/06/20 09:42:36;;;;;;;12.52;11.02;;;25.40;99.90;;;;;;5017626;27;88361;-37
2023/06/20 09:45:02;;;;;;;12.68;11.45;;;25.60;99.90;;;;;;5017168;27;90065;-36
2023/06/20 09:47:28;;;;;;;12.77;11.48;;;25.70;99.90;;;;;;5017099;28;90061;-34
2023/06/20 09:49:58;;;;;;;12.18;10.55;;;25.80;99.90;;;;;;5017546;27;90111;-37
2023/06/20 09:52:36;;;;;;;10.70;9.70;;;25.90;99.90;;;;;;5017254;27;90601;-35
2023/06/20 09:55:08;;;;;;;13.48;11.63;;;25.90;99.90;;;;;;5036102;27;89761;-34
2023/06/20 09:58:07;;;;;;;11.93;10.73;;;25.90;99.90;;;;;;5024742;27;89875;-37
2023/06/20 10:00:34;;;;;;;11.57;10.48;;;26.00;99.90;;;;;;4952315;27;88718;-34
2023/06/20 10:03:05;;;;;;;11.88;10.65;;;26.20;99.90;;;;;;5035794;27;89458;-34
2023/06/20 10:05:33;;;;;;;11.25;10.20;;;26.40;99.90;;;;;;5032627;27;92280;-35
2023/06/20 10:07:59;;;;;;;12.73;9.65;;;26.40;99.90;;;;;;5005862;28;88745;-36
2023/06/20 10:10:25;;;;;;;11.07;10.07;;;26.60;99.90;;;;;;5021900;27;89353;-35
2023/06/20 10:12:51;;;;;;;11.25;10.25;;;26.60;99.90;;;;;;5036482;27;88319;-34
2023/06/20 10:15:17;;;;;;;11.02;10.05;;;26.60;99.90;;;;;;5022522;27;90077;-38
2023/06/20 10:17:48;;;;;;;11.07;10.05;;;26.70;99.90;;;;;;5035859;27;90614;-38
2023/06/20 10:20:25;;;;;;;13.15;9.55;;;26.90;99.90;;;;;;5032417;27;90084;-35
2023/06/20 10:22:53;;;;;;;11.05;10.00;;;27.10;99.90;;;;;;5037197;27;89392;-33
2023/06/20 10:25:19;;;;;;;12.15;11.05;;;27.20;99.90;;;;;;5035826;27;90389;-36
2023/06/20 10:28:03;;;;;;;10.80;9.85;;;27.00;99.90;;;;;;5036390;27;89729;-34
2023/06/20 10:30:49;;;;;;;10.02;9.05;;;27.00;99.90;;;;;;5017693;27;90229;-34
2023/06/20 10:33:15;;;;;;;11.98;9.82;;;27.00;99.90;;;;;;5030468;27;88892;-36
2023/06/20 10:35:48;;;;;;;10.00;9.00;;;27.00;99.90;;;;;;5018466;27;92380;-37
2023/06/20 10:38:14;;;;;;;10.88;9.88;;;26.90;99.90;;;;;;5035795;27;89384;-37
2023/06/20 10:40:40;;;;;;;12.20;10.98;;;27.00;99.90;;;;;;5035947;27;89604;-36
2023/06/20 10:43:07;;;;;;;9.45;8.50;;;26.80;99.90;;;;;;5032275;27;89354;-38
2023/06/20 10:45:34;;;;;;;10.70;9.80;;;26.70;99.90;;;;;;5016215;28;88997;-36
2023/06/20 10:48:03;;;;;;;11.90;10.70;;;26.60;99.90;;;;;;5029625;27;89513;-35
2023/06/20 10:50:30;;;;;;;10.77;9.77;;;26.60;99.90;;;;;;5026810;27;89851;-37
2023/06/20 10:52:58;;;;;;;12.50;9.95;;;26.60;99.90;;;;;;5022779;27;89150;-34
2023/06/20 10:55:29;;;;;;;10.70;9.70;;;26.70;99.90;;;;;;5036849;27;90393;-34
2023/06/20 10:57:55;;;;;;;10.35;9.35;;;26.70;99.90;;;;;;5016147;27;89127;-36
2023/06/20 11:00:22;;;;;;;10.80;9.83;;;26.80;99.90;;;;;;5019403;27;90784;-34
2023/06/20 11:02:53;;;;;;;10.35;9.30;;;26.60;99.90;;;;;;5027040;27;89407;-35
2023/06/20 11:05:24;;;;;;;11.48;10.25;;;26.60;99.90;;;;;;5014989;27;91060;-34
2023/06/20 11:08:07;;;;;;;10.15;9.27;;;26.40;99.90;;;;;;5014682;28;90776;-37
2023/06/20 11:10:34;;;;;;;10.48;9.50;;;26.30;99.90;;;;;;5015142;28;89948;-36
2023/06/20 11:13:02;;;;;;;9.82;8.77;;;26.40;99.90;;;;;;5018778;27;88588;-35
2023/06/20 11:15:36;;;;;;;11.00;9.98;;;26.50;99.90;;;;;;5016600;27;89829;-37
2023/06/20 11:18:03;;;;;;;9.75;8.93;;;26.60;99.90;;;;;;5026095;27;90110;-37
2023/06/20 11:20:29;;;;;;;10.50;9.38;;;26.80;99.90;;;;;;5025325;27;89868;-35
2023/06/20 11:22:58;;;;;;;10.65;9.43;;;27.00;99.90;;;;;;5024623;27;88606;-36
2023/06/20 11:25:26;;;;;;;10.65;9.75;;;27.00;99.90;;;;;;5037497;27;89603;-36
2023/06/20 11:27:51;;;;;;;;;;;27.20;99.90;;;;;;5023532;27;89709;-34
2023/06/20 11:30:27;;;;;;;11.27;10.18;;;27.30;99.90;;;;;;5038884;27;89344;-35
2023/06/20 11:33:12;;;;;;;10.07;9.10;;;27.40;99.90;;;;;;5019501;27;89613;-36
2023/06/20 11:35:44;;;;;;;11.73;10.23;;;27.50;99.90;;;;;;5018874;28;90729;-36
2023/06/20 11:38:13;;;;;;;10.00;9.00;;;27.70;99.90;;;;;;5016852;28;89473;-38
2023/06/20 11:40:39;;;;;;;9.77;8.88;;;27.70;99.90;;;;;;5018000;28;90493;-37
2023/06/20 11:43:05;;;;;;;11.48;10.27;;;27.60;99.90;;;;;;5018277;28;89245;-36
2023/06/20 11:45:32;;;;;;;10.70;9.80;;;27.60;99.90;;;;;;4999076;28;91049;-38
2023/06/20 11:48:07;;;;;;;11.15;10.15;;;27.60;99.90;;;;;;5021288;28;89454;-35
2023/06/20 11:50:33;;;;;;;11.88;9.55;;;27.50;99.90;;;;;;5020621;28;89113;-36
2023/06/20 11:52:59;;;;;;;10.82;9.75;;;27.40;99.90;;;;;;5021317;28;89481;-35
2023/06/20 11:55:47;;;;;;;12.05;8.48;;;27.40;99.90;;;;;;5021146;28;91459;-34
2023/06/20 11:58:14;;;;;;;10.05;8.98;;;27.60;99.90;;;;;;5020722;28;90717;-34
2023/06/20 12:00:40;;;;;;;8.45;7.85;;;27.70;99.90;;;;;;5021726;27;90372;-37
2023/06/20 12:03:10;;;;;;;8.98;8.15;;;27.70;99.90;;;;;;5021320;28;88010;-36
2023/06/20 12:05:37;;;;;;;8.93;8.02;;;27.70;99.90;;;;;;5021332;28;90474;-38
2023/06/20 12:08:03;;;;;;;8.65;7.72;;;27.80;99.90;;;;;;5020884;27;90197;-33
2023/06/20 12:10:29;;;;;;;7.93;7.13;;;27.90;99.00;;;;;;5018164;28;89584;-38
2023/06/20 12:12:55;;;;;;;8.32;7.63;;;28.00;99.80;;;;;;5022102;27;89891;-33
2023/06/20 12:15:20;;;;;;;10.27;9.27;;;27.90;99.90;;;;;;5021282;28;89371;-35
2023/06/20 12:17:46;;;;;;;9.38;8.63;;;27.90;99.60;;;;;;5019480;27;89438;-38
2023/06/20 12:20:13;;;;;;;9.10;8.27;;;28.10;99.90;;;;;;5023310;27;90792;-36
2023/06/20 12:22:38;;;;;;;8.88;8.07;;;28.10;99.90;;;;;;5020130;27;88914;-35
2023/06/20 12:25:04;;;;;;;8.60;7.82;;;27.70;97.80;;;;;;5023081;27;90200;-34
2023/06/20 12:27:30;;;;;;;9.05;8.25;;;27.60;98.70;;;;;;5020549;27;89550;-35
2023/06/20 12:30:02;;;;;;;9.15;8.45;;;27.60;99.90;;;;;;5020713;28;89698;-38
2023/06/20 12:32:30;;;;;;;8.32;7.63;;;27.50;99.90;;;;;;4992454;28;89906;-35
2023/06/20 12:34:56;;;;;;;9.27;8.48;;;27.40;99.90;;;;;;5017060;27;90174;-33